KMJX/MJX METAR and TAF weather

Enter ICAO airport designator
Station Type Date Time Source
KMJX METAR 2020/07/06 23:56 UTC NOAA

KMJX 062356Z AUTO 22006KT 10SM CLR 21/19 A3005 RMK AO2 SLP177 6//// T02110189 10317 20194 56008


Station Type Date Time Source
KMJX Decoded METAR 2020/07/06 23:56 UTC NOAA

Station name not available
Jul 06, 2020 - 07:56 PM EDT / 2020.07.06 2356 UTC
Wind: from the SW (220 degrees) at 7 MPH (6 KT):0
Visibility: 10 mile(s):0
Sky conditions: clear
Temperature: 70.0 F (21.1 C)
Dew Point: 66.0 F (18.9 C)
Relative Humidity: 87%
Pressure (altimeter): 30.05 in. Hg (1017 hPa)
Pressure tendency: 0.02 inches (0.8 hPa) lower than three hours ago
ob: KMJX 062356Z AUTO 22006KT 10SM CLR 21/19 A3005 RMK AO2 SLP177 6//// T02110189 10317 20194 56008
cycle: 0

Station Type Date Time Source
KMJX TAF UTC NOAA

Error!

Example: see airport list